Airfield :
LOGIN :

Register | Disclaimer

   EN    FR    IT 

 










Legend :    VFR   Marginal VFR   IFR   Intensive IFR   Very Intensive IFR
Visi :
Ceiling :
>= 8 km
>= 3000ft
5 to 8 km
1000 to 3000 ft
1500m to 5 km
500 to 1000 ft
800 to 1500m
200 to 500 ft
< 800m
< 200 ft
Symbols :   Thunderstorms  Fog  Heavy snow  Heavy precipitations  Wind > 20 kt
SIGMETs :     Misc.  Thunderstorms  Icing  Turbulence  Mountain Waves  Volcanic Ashes







- Airport Elevation : 37 ft
- IATA code : HLY


EGOV - RAF Valley

CURRENT METAR :
  • 190750Z 20005KT 9999 FEW015 BKN050 13/09 Q1021 BLU NOSIG

EXPIRED METARs :
  • 190650Z 28003KT 9999 FEW030 OVC050 13/09 Q1021 BLU NOSIG
  • 190550Z 29004KT 9999 FEW030 BKN050 12/09 Q1021 BLU NOSIG

TAF TAF EGOV
Valid from the 19 at 09:00 until the 19 at 18:00 UTC


190757Z 1909/1918 26005KT 9999 FEW030
BECMG 1910/1912 17015KT 6000 BR SCT010
TEMPO 1910/1915 2000 DZ
BECMG 1912/1915 BKN005
TEMPO 1912/1918 1000 VCFG BR SCT003
PROB30
TEMPO 1912/1918 0500 FG SCT001
BECMG 1914/1918 19020G30KT
No reported NOTAMs for that airfield.
1 SIGMET reported for the London FIR (EGTT) :
 
Severe mountain waves
EGTT SIGMET 01 VALID 190605/191000 EGRR
EGTT LONDON FIR SEV MTW FCST WI N5500 E00200 - N5330 E00200 - N5330 W00300 - N5500 W00500 - N5500 E00200 FL040/240 STNR NC=



MET'MAP, your aeronautical weather chart ! - Copyright ORBIFLY December 2007 - Disclaimer

ORBIFLY MET'MAP TEAM :

Programming & Development : Alexandra Zaïnal
Concept & Development : Baudouin d'Aumeries
Co-Development & Prog : Marc-Olivier Méhu
Technical & hardware support : Manuel Goepfert

Contact : metmap@orbifly.com




SOURCES & CREDITS :

   NOAA